Aalborg, Denmark

12:18 AM CEST on October 24, 2014 (GMT +0200)
Aalborg | Change Station
CLOSE
Current Station
Airport
Location: Aalborg,
Elevation: 10 ft
Nearby Weather Stations

Elev 10 ft 57.10 °N, 9.85 °E | Updated 28 minutes ago

Light Drizzle
Light Drizzle
54 °F
Feels Like 54 °F
N
16
Wind Variable Wind from South

Today
High -- | Low -- °F
--% Chance of Precip.
Yesterday
High -- | Low -- °F
Precip. -- in
8:13 AM 5:55 PM
New Moon, 0% visible
Pressure 30.01 in
Visibility 4.3 miles
Clouds Few 500 ft
Scattered Clouds 1000 ft
Mostly Cloudy 1200 ft
Dew Point 54 °F
Humidity 100%
Rainfall 0.00 in
Snow Depth Not available.
UV 0 out of 12
Pollen Not available.
Air Quality Not available.
Flu Activity Not available.
METAR EKYT 232150Z 19014KT 7000 -DZ FEW005 SCT010 BKN012 12/12 Q1016

More Conditions Fewer Conditions

Pressure 30.01 in
Visibility 4.3 miles
Clouds Few 500 ft
Scattered Clouds 1000 ft
Mostly Cloudy 1200 ft
Dew Point 54 °F
Humidity 100%
Rainfall 0.00 in
Snow Depth Not available.
UV 0 out of 12
Pollen Not available.
Air Quality Not available.
Flu Activity Not available.
METAR EKYT 232150Z 19014KT 7000 -DZ FEW005 SCT010 BKN012 12/12 Q1016

More Conditions Fewer Conditions

10-Day Weather Forecast

Almanac

Astronomy

Oct. 24, 2014 Rise Set
Actual Time 8:13 AM CEST 5:55 PM CEST
Civil Twilight 7:33 AM CEST 6:35 PM CEST
Nautical Twilight 6:48 AM CEST 7:19 PM CEST
Astronomical Twilight 6:04 AM CEST 8:03 PM CEST
Moon 8:39 AM CEST (10/24) 6:16 PM CEST (10/24)
Length of Visible Light 11h 01m
Length of Day
9h 42m
Tomorrow will be 4m 40s shorter.
New Moon, 0% of the Moon is Illuminated
Oct 23
New Moon
Oct 30
First Quarter
Nov 6
Full
Nov 14
Last Quarter
Nov 22
New

Yesterday's Extremes

Country Highs Country Lows

Community

WunderPhotos

Upload Photos

1,764,383 photos uploaded!

WunderBlogs® & News

Nearby

Snow Depth

Not available.

Earthquake Activity

City Distance Mag. Time & Date
No recent earthquake activity has been reported nearby.
Minimum magnitude displayed is 2.5.

Coastal Water Temperatures

Place Temperature
No Stations Reporting

Nearby Weather Stations